SBI110 UWKD-UNNT
Flight info
| Callsign | SBI110 |
|---|---|
| Flight time | N/A |
| Altitude | 39000 |
| Route | RIMIP L94 KEROM L749 LUKAS M864 GISMA B926 SZ W1 GOLIM |
| Aircraft | A20N/M-SDRWY/L |
Departure
| Time | 2026-05-04 04:40 |
|---|---|
| Airport | Kazan International Airport (UWKD) |
Arrival
| Time | N/A |
|---|---|
| Airport | Novosibirsk Tolmachevo Airport (UNNT) |
| Time | Latitude | Longitude | Altitude | Speed | Heading |
|---|---|---|---|---|---|
| 2026-05-04 04:15 | 55.60739 | 49.29893 | 420 ft | 0 kts | 33° |
| 2026-05-04 04:26 | 55.60730 | 49.29883 | 420 ft | 2 kts | 33° |
| 2026-05-04 04:26 | 55.60718 | 49.29869 | 420 ft | 2 kts | 33° |
| 2026-05-04 04:26 | 55.60706 | 49.29854 | 420 ft | 2 kts | 33° |
| 2026-05-04 04:27 | 55.60692 | 49.29844 | 420 ft | 2 kts | 2° |
| 2026-05-04 04:27 | 55.60677 | 49.29848 | 420 ft | 2 kts | 336° |
| 2026-05-04 04:27 | 55.60664 | 49.29863 | 420 ft | 2 kts | 310° |
| 2026-05-04 04:27 | 55.60656 | 49.29885 | 420 ft | 1 kts | 303° |
| 2026-05-04 04:28 | 55.60654 | 49.29890 | 420 ft | 0 kts | 305° |
| 2026-05-04 04:30 | 55.60662 | 49.29871 | 419 ft | 4 kts | 305° |
| 2026-05-04 04:31 | 55.60688 | 49.29803 | 420 ft | 7 kts | 304° |
| 2026-05-04 04:31 | 55.60720 | 49.29720 | 420 ft | 8 kts | 304° |
| 2026-05-04 04:31 | 55.60757 | 49.29625 | 420 ft | 9 kts | 304° |
| 2026-05-04 04:31 | 55.60798 | 49.29523 | 419 ft | 10 kts | 304° |
| 2026-05-04 04:32 | 55.60794 | 49.29406 | 419 ft | 11 kts | 214° |
| 2026-05-04 04:32 | 55.60729 | 49.29325 | 419 ft | 11 kts | 215° |
| 2026-05-04 04:32 | 55.60659 | 49.29240 | 419 ft | 12 kts | 213° |
| 2026-05-04 04:32 | 55.60593 | 49.29142 | 419 ft | 12 kts | 236° |
| 2026-05-04 04:33 | 55.60580 | 49.28987 | 419 ft | 13 kts | 273° |
| 2026-05-04 04:33 | 55.60586 | 49.28823 | 419 ft | 13 kts | 274° |
| 2026-05-04 04:33 | 55.60595 | 49.28653 | 419 ft | 14 kts | 281° |
| 2026-05-04 04:33 | 55.60640 | 49.28499 | 419 ft | 14 kts | 303° |
| 2026-05-04 04:34 | 55.60697 | 49.28351 | 420 ft | 14 kts | 304° |
| 2026-05-04 04:34 | 55.60755 | 49.28202 | 419 ft | 14 kts | 304° |
| 2026-05-04 04:34 | 55.60815 | 49.28049 | 419 ft | 15 kts | 304° |
| 2026-05-04 04:34 | 55.60875 | 49.27895 | 420 ft | 15 kts | 304° |
| 2026-05-04 04:35 | 55.60935 | 49.27738 | 420 ft | 15 kts | 304° |
| 2026-05-04 04:35 | 55.60996 | 49.27580 | 419 ft | 15 kts | 304° |
| 2026-05-04 04:35 | 55.61058 | 49.27420 | 420 ft | 15 kts | 305° |
| 2026-05-04 04:35 | 55.61121 | 49.27259 | 420 ft | 15 kts | 304° |
| 2026-05-04 04:36 | 55.61183 | 49.27097 | 420 ft | 16 kts | 304° |
| 2026-05-04 04:36 | 55.61246 | 49.26934 | 420 ft | 16 kts | 304° |
| 2026-05-04 04:36 | 55.61309 | 49.26771 | 420 ft | 16 kts | 304° |
| 2026-05-04 04:36 | 55.61373 | 49.26608 | 420 ft | 16 kts | 304° |
| 2026-05-04 04:37 | 55.61565 | 49.26111 | 419 ft | 16 kts | 304° |
| 2026-05-04 04:37 | 55.61629 | 49.25946 | 420 ft | 16 kts | 304° |
| 2026-05-04 04:38 | 55.61694 | 49.25780 | 420 ft | 16 kts | 304° |
| 2026-05-04 04:38 | 55.61759 | 49.25613 | 420 ft | 16 kts | 304° |
| 2026-05-04 04:38 | 55.61822 | 49.25445 | 420 ft | 16 kts | 303° |
| 2026-05-04 04:38 | 55.61834 | 49.25267 | 420 ft | 16 kts | 220° |
| 2026-05-04 04:39 | 55.61749 | 49.25167 | 420 ft | 11 kts | 213° |
| 2026-05-04 04:39 | 55.61677 | 49.25163 | 420 ft | 11 kts | 135° |
| 2026-05-04 04:39 | 55.61627 | 49.25294 | 419 ft | 21 kts | 124° |
| 2026-05-04 04:39 | 55.61391 | 49.25907 | 420 ft | 97 kts | 124° |
| 2026-05-04 04:40 | 55.60889 | 49.27200 | 423 ft | 155 kts | 125° |
| 2026-05-04 04:40 | 55.60261 | 49.28837 | 934 ft | 161 kts | 125° |
| 2026-05-04 04:40 | 55.59644 | 49.30429 | 1655 ft | 159 kts | 125° |
| 2026-05-04 04:40 | 55.59021 | 49.32024 | 2315 ft | 160 kts | 125° |
| 2026-05-04 04:41 | 55.58364 | 49.33706 | 2733 ft | 175 kts | 124° |
| 2026-05-04 04:41 | 55.57642 | 49.35560 | 3123 ft | 195 kts | 124° |
| 2026-05-04 04:41 | 55.56840 | 49.37618 | 3524 ft | 216 kts | 124° |
| 2026-05-04 04:41 | 55.55943 | 49.39923 | 3983 ft | 237 kts | 124° |
| 2026-05-04 04:42 | 55.55046 | 49.42480 | 4518 ft | 255 kts | 111° |
| 2026-05-04 04:42 | 55.54801 | 49.45617 | 5260 ft | 264 kts | 82° |
| 2026-05-04 04:42 | 55.55420 | 49.48583 | 6163 ft | 266 kts | 59° |
| 2026-05-04 04:42 | 55.56308 | 49.51416 | 7055 ft | 268 kts | 68° |
| 2026-05-04 04:43 | 55.56848 | 49.54556 | 7908 ft | 271 kts | 75° |
| 2026-05-04 04:43 | 55.57288 | 49.57796 | 8740 ft | 275 kts | 76° |
| 2026-05-04 04:43 | 55.57700 | 49.61091 | 9549 ft | 279 kts | 76° |
| 2026-05-04 04:43 | 55.58105 | 49.64469 | 10333 ft | 284 kts | 77° |
| 2026-05-04 04:44 | 55.58513 | 49.67941 | 11009 ft | 292 kts | 77° |
| 2026-05-04 04:44 | 55.58918 | 49.71436 | 11732 ft | 297 kts | 77° |
| 2026-05-04 04:44 | 55.59332 | 49.75035 | 12479 ft | 301 kts | 77° |
| 2026-05-04 04:44 | 55.59749 | 49.78678 | 13224 ft | 304 kts | 77° |
| 2026-05-04 04:45 | 55.60169 | 49.82356 | 13961 ft | 308 kts | 77° |
| 2026-05-04 04:45 | 55.60593 | 49.86098 | 14687 ft | 311 kts | 77° |
| 2026-05-04 04:45 | 55.61015 | 49.89827 | 15373 ft | 315 kts | 77° |
| 2026-05-04 04:47 | 55.64333 | 50.12983 | 19271 ft | 334 kts | 65° |
| 2026-05-04 04:47 | 55.65256 | 50.16790 | 19877 ft | 337 kts | 65° |
| 2026-05-04 04:47 | 55.66190 | 50.20621 | 20474 ft | 341 kts | 65° |
| 2026-05-04 04:47 | 55.67120 | 50.24442 | 21056 ft | 344 kts | 65° |
| 2026-05-04 04:48 | 55.68067 | 50.28354 | 21640 ft | 347 kts | 65° |
| 2026-05-04 04:49 | 55.71906 | 50.44338 | 23865 ft | 360 kts | 65° |
| 2026-05-04 04:49 | 55.72887 | 50.48444 | 24393 ft | 363 kts | 65° |
| 2026-05-04 04:49 | 55.73861 | 50.52529 | 24902 ft | 366 kts | 65° |
| 2026-05-04 04:49 | 55.74852 | 50.56693 | 25401 ft | 369 kts | 65° |
| 2026-05-04 04:50 | 55.75854 | 50.60916 | 25891 ft | 372 kts | 65° |
| 2026-05-04 04:50 | 55.76857 | 50.65151 | 26368 ft | 375 kts | 66° |
| 2026-05-04 04:50 | 55.77861 | 50.69397 | 26827 ft | 377 kts | 66° |
| 2026-05-04 04:50 | 55.78889 | 50.73754 | 27285 ft | 380 kts | 66° |
| 2026-05-04 04:51 | 55.79901 | 50.78050 | 27718 ft | 383 kts | 66° |
| 2026-05-04 04:51 | 55.80940 | 50.82467 | 28143 ft | 386 kts | 66° |
| 2026-05-04 04:51 | 55.81971 | 50.86863 | 28545 ft | 388 kts | 66° |
| 2026-05-04 04:51 | 55.83008 | 50.91296 | 28932 ft | 391 kts | 66° |
| 2026-05-04 04:52 | 55.84046 | 50.95742 | 29280 ft | 394 kts | 66° |
| 2026-05-04 04:52 | 55.85105 | 51.00285 | 29605 ft | 398 kts | 66° |
| 2026-05-04 04:52 | 55.86158 | 51.04809 | 29912 ft | 401 kts | 66° |
| 2026-05-04 04:52 | 55.87229 | 51.09422 | 30210 ft | 405 kts | 66° |
| 2026-05-04 04:53 | 55.88301 | 51.14045 | 30498 ft | 408 kts | 66° |
| 2026-05-04 04:53 | 55.89388 | 51.18750 | 30800 ft | 411 kts | 66° |
| 2026-05-04 04:53 | 55.90465 | 51.23423 | 31103 ft | 413 kts | 66° |
| 2026-05-04 04:53 | 55.91563 | 51.28200 | 31419 ft | 414 kts | 66° |
| 2026-05-04 04:54 | 55.92650 | 51.32938 | 31730 ft | 416 kts | 66° |
| 2026-05-04 04:54 | 55.93737 | 51.37689 | 32013 ft | 418 kts | 66° |
| 2026-05-04 04:54 | 55.94832 | 51.42481 | 32285 ft | 420 kts | 66° |
| 2026-05-04 04:54 | 55.95928 | 51.47288 | 32552 ft | 421 kts | 66° |
| 2026-05-04 04:55 | 55.97041 | 51.52179 | 32813 ft | 423 kts | 66° |
| 2026-05-04 04:55 | 55.98148 | 51.57060 | 33066 ft | 425 kts | 66° |
| 2026-05-04 04:55 | 55.99251 | 51.61937 | 33310 ft | 427 kts | 66° |
| 2026-05-04 04:55 | 56.00369 | 51.66891 | 33545 ft | 429 kts | 67° |
| 2026-05-04 04:56 | 56.01454 | 51.71842 | 33770 ft | 431 kts | 69° |
| 2026-05-04 04:56 | 56.02398 | 51.76912 | 33995 ft | 433 kts | 73° |
| 2026-05-04 04:56 | 56.03181 | 51.82153 | 34216 ft | 435 kts | 76° |
| 2026-05-04 04:56 | 56.03781 | 51.87440 | 34428 ft | 437 kts | 80° |
| 2026-05-04 04:57 | 56.04203 | 51.92814 | 34636 ft | 438 kts | 83° |
| 2026-05-04 04:57 | 56.04454 | 51.98207 | 34839 ft | 440 kts | 85° |
| 2026-05-04 04:57 | 56.04647 | 52.03717 | 35038 ft | 441 kts | 86° |
| 2026-05-04 04:57 | 56.04827 | 52.09133 | 35228 ft | 443 kts | 86° |
| 2026-05-04 04:58 | 56.05011 | 52.14679 | 35413 ft | 444 kts | 86° |
| 2026-05-04 04:58 | 56.05195 | 52.20197 | 35586 ft | 445 kts | 86° |
| 2026-05-04 04:58 | 56.05379 | 52.25706 | 35751 ft | 447 kts | 86° |
| 2026-05-04 04:58 | 56.05562 | 52.31231 | 35926 ft | 447 kts | 86° |
| 2026-05-04 04:59 | 56.05743 | 52.36755 | 36134 ft | 447 kts | 86° |
| 2026-05-04 04:59 | 56.05923 | 52.42329 | 36346 ft | 447 kts | 86° |
| 2026-05-04 04:59 | 56.06099 | 52.47835 | 36542 ft | 446 kts | 86° |
| 2026-05-04 04:59 | 56.06272 | 52.53352 | 36726 ft | 446 kts | 86° |
| 2026-05-04 05:00 | 56.06443 | 52.58884 | 36905 ft | 446 kts | 85° |
| 2026-05-04 05:00 | 56.06609 | 52.64416 | 37076 ft | 446 kts | 86° |
| 2026-05-04 05:00 | 56.06903 | 52.75503 | 37399 ft | 446 kts | 87° |
| 2026-05-04 05:01 | 56.07045 | 52.81059 | 37562 ft | 446 kts | 87° |
| 2026-05-04 05:01 | 56.07184 | 52.86578 | 37715 ft | 446 kts | 87° |
| 2026-05-04 05:01 | 56.07321 | 52.92115 | 37840 ft | 447 kts | 87° |
| 2026-05-04 05:01 | 56.07457 | 52.97663 | 37958 ft | 448 kts | 87° |
| 2026-05-04 05:02 | 56.07591 | 53.03235 | 38072 ft | 449 kts | 88° |
| 2026-05-04 05:02 | 56.07722 | 53.08807 | 38189 ft | 449 kts | 88° |
| 2026-05-04 05:02 | 56.07849 | 53.14378 | 38315 ft | 449 kts | 88° |
| 2026-05-04 05:02 | 56.07975 | 53.20011 | 38455 ft | 449 kts | 88° |
| 2026-05-04 05:03 | 56.08097 | 53.25561 | 38578 ft | 449 kts | 88° |
| 2026-05-04 05:03 | 56.08217 | 53.31107 | 38704 ft | 449 kts | 88° |
| 2026-05-04 05:04 | 56.08564 | 53.47888 | 38942 ft | 450 kts | 88° |
| 2026-05-04 05:04 | 56.08781 | 53.59021 | 38946 ft | 450 kts | 88° |
| 2026-05-04 05:06 | 56.09575 | 54.03741 | 38948 ft | 450 kts | 88° |
| 2026-05-04 05:07 | 56.09748 | 54.14938 | 38947 ft | 450 kts | 88° |
| 2026-05-04 05:07 | 56.09907 | 54.26098 | 38947 ft | 450 kts | 88° |
| 2026-05-04 05:09 | 56.13602 | 54.75959 | 38923 ft | 450 kts | 81° |
| 2026-05-04 05:10 | 56.14536 | 54.86959 | 38921 ft | 450 kts | 81° |
| 2026-05-04 05:10 | 56.15468 | 54.98055 | 38921 ft | 450 kts | 81° |
| 2026-05-04 05:11 | 56.16390 | 55.09134 | 38920 ft | 452 kts | 82° |
| 2026-05-04 05:11 | 56.17310 | 55.20306 | 38920 ft | 455 kts | 83° |
| 2026-05-04 05:12 | 56.18219 | 55.31564 | 38920 ft | 456 kts | 83° |
| 2026-05-04 05:12 | 56.19118 | 55.42823 | 38918 ft | 456 kts | 83° |
| 2026-05-04 05:13 | 56.20007 | 55.54069 | 38917 ft | 456 kts | 83° |
| 2026-05-04 05:13 | 56.20887 | 55.65311 | 38916 ft | 456 kts | 83° |
| 2026-05-04 05:14 | 56.21765 | 55.76604 | 38913 ft | 456 kts | 83° |
| 2026-05-04 05:14 | 56.22629 | 55.87881 | 38911 ft | 456 kts | 83° |
| 2026-05-04 05:15 | 56.23477 | 55.99091 | 38910 ft | 456 kts | 83° |
| 2026-05-04 05:15 | 56.24322 | 56.10401 | 38909 ft | 456 kts | 83° |
| 2026-05-04 05:16 | 56.25153 | 56.21669 | 38907 ft | 456 kts | 83° |
| 2026-05-04 05:16 | 56.25973 | 56.32945 | 38906 ft | 456 kts | 83° |
| 2026-05-04 05:17 | 56.26783 | 56.44202 | 38905 ft | 456 kts | 83° |
| 2026-05-04 05:17 | 56.27582 | 56.55505 | 38903 ft | 456 kts | 83° |
| 2026-05-04 05:18 | 56.28379 | 56.66850 | 38902 ft | 456 kts | 84° |
| 2026-05-04 05:18 | 56.29162 | 56.78093 | 38901 ft | 456 kts | 84° |
| 2026-05-04 05:19 | 56.29938 | 56.89407 | 38899 ft | 455 kts | 84° |
| 2026-05-04 05:19 | 56.30706 | 57.00727 | 38896 ft | 457 kts | 84° |
| 2026-05-04 05:20 | 56.31463 | 57.12068 | 38896 ft | 459 kts | 85° |
| 2026-05-04 05:20 | 56.32211 | 57.23496 | 38895 ft | 460 kts | 85° |
| 2026-05-04 05:21 | 56.32950 | 57.34954 | 38894 ft | 460 kts | 85° |
| 2026-05-04 05:21 | 56.33680 | 57.46394 | 38894 ft | 460 kts | 85° |
| 2026-05-04 05:22 | 56.34398 | 57.57778 | 38894 ft | 460 kts | 85° |
| 2026-05-04 05:22 | 56.35109 | 57.69244 | 38893 ft | 460 kts | 86° |
| 2026-05-04 05:23 | 56.35804 | 57.80640 | 38893 ft | 459 kts | 86° |
| 2026-05-04 05:23 | 56.36491 | 57.92104 | 38893 ft | 459 kts | 86° |
| 2026-05-04 05:24 | 56.37169 | 58.03574 | 38894 ft | 459 kts | 86° |
| 2026-05-04 05:24 | 56.37834 | 58.15002 | 38894 ft | 459 kts | 86° |
| 2026-05-04 05:25 | 56.38490 | 58.26476 | 38894 ft | 459 kts | 86° |
| 2026-05-04 05:25 | 56.39131 | 58.37917 | 38893 ft | 459 kts | 86° |
| 2026-05-04 05:26 | 56.39764 | 58.49316 | 38894 ft | 459 kts | 86° |
| 2026-05-04 05:26 | 56.40390 | 58.60777 | 38894 ft | 459 kts | 86° |
| 2026-05-04 05:28 | 56.42781 | 59.06809 | 38890 ft | 466 kts | 88° |
| 2026-05-04 05:29 | 56.42919 | 59.18516 | 38893 ft | 465 kts | 95° |
| 2026-05-04 05:29 | 56.42679 | 59.30097 | 38892 ft | 465 kts | 95° |
| 2026-05-04 05:31 | 56.41614 | 59.76747 | 38892 ft | 464 kts | 96° |
| 2026-05-04 05:32 | 56.41327 | 59.88357 | 38893 ft | 464 kts | 96° |
| 2026-05-04 05:33 | 56.40877 | 60.05771 | 38893 ft | 464 kts | 96° |
| 2026-05-04 05:33 | 56.40559 | 60.17382 | 38894 ft | 464 kts | 96° |
| 2026-05-04 05:34 | 56.40251 | 60.29014 | 38893 ft | 464 kts | 96° |
| 2026-05-04 05:34 | 56.39946 | 60.40627 | 38893 ft | 463 kts | 96° |
| 2026-05-04 05:35 | 56.39615 | 60.52198 | 38894 ft | 464 kts | 96° |
| 2026-05-04 05:35 | 56.39244 | 60.63819 | 38893 ft | 464 kts | 96° |
| 2026-05-04 05:36 | 56.38864 | 60.75407 | 38892 ft | 463 kts | 97° |
| 2026-05-04 05:36 | 56.38472 | 60.86999 | 38892 ft | 463 kts | 97° |
| 2026-05-04 05:37 | 56.38070 | 60.98546 | 38893 ft | 463 kts | 97° |
| 2026-05-04 05:37 | 56.37685 | 61.09983 | 38892 ft | 465 kts | 97° |
| 2026-05-04 05:38 | 56.37107 | 61.27525 | 38893 ft | 468 kts | 97° |
| 2026-05-04 05:38 | 56.36703 | 61.39240 | 38893 ft | 468 kts | 97° |
| 2026-05-04 05:39 | 56.36073 | 61.56787 | 38893 ft | 469 kts | 97° |
| 2026-05-04 05:40 | 56.35422 | 61.74309 | 38892 ft | 467 kts | 98° |
| 2026-05-04 05:40 | 56.34976 | 61.85921 | 38886 ft | 468 kts | 98° |
| 2026-05-04 05:41 | 56.34515 | 61.97610 | 38871 ft | 468 kts | 98° |
| 2026-05-04 05:41 | 56.34044 | 62.09315 | 38857 ft | 468 kts | 98° |
| 2026-05-04 05:42 | 56.33564 | 62.20953 | 38846 ft | 468 kts | 98° |
| 2026-05-04 05:42 | 56.33070 | 62.32646 | 38842 ft | 468 kts | 98° |
| 2026-05-04 05:43 | 56.32570 | 62.44257 | 38840 ft | 468 kts | 98° |
| 2026-05-04 05:45 | 56.30448 | 62.90858 | 38838 ft | 468 kts | 99° |
| 2026-05-04 05:47 | 56.28150 | 63.37450 | 38838 ft | 468 kts | 99° |
| 2026-05-04 05:47 | 56.27544 | 63.49098 | 38850 ft | 469 kts | 99° |
| 2026-05-04 05:48 | 56.26925 | 63.60744 | 38890 ft | 468 kts | 99° |
| 2026-05-04 05:48 | 56.26289 | 63.72395 | 38933 ft | 467 kts | 100° |
| 2026-05-04 05:49 | 56.25637 | 63.84062 | 38958 ft | 467 kts | 100° |
| 2026-05-04 05:49 | 56.24978 | 63.95656 | 38967 ft | 468 kts | 100° |
| 2026-05-04 05:51 | 56.22241 | 64.42008 | 38975 ft | 467 kts | 100° |
| 2026-05-04 05:52 | 56.21529 | 64.53580 | 38976 ft | 467 kts | 100° |
| 2026-05-04 05:52 | 56.20807 | 64.65149 | 38975 ft | 467 kts | 101° |
| 2026-05-04 05:54 | 56.17804 | 65.11436 | 38975 ft | 467 kts | 101° |
| 2026-05-04 05:55 | 56.17034 | 65.22927 | 38975 ft | 467 kts | 100° |
| 2026-05-04 05:55 | 56.16246 | 65.34453 | 38976 ft | 467 kts | 100° |
| 2026-05-04 05:56 | 56.15449 | 65.46049 | 38975 ft | 467 kts | 100° |
| 2026-05-04 05:56 | 56.14649 | 65.57563 | 38975 ft | 467 kts | 100° |
| 2026-05-04 05:57 | 56.13838 | 65.69085 | 38974 ft | 467 kts | 101° |
| 2026-05-04 05:57 | 56.13015 | 65.80586 | 38974 ft | 467 kts | 101° |
| 2026-05-04 05:58 | 56.12180 | 65.92101 | 38975 ft | 466 kts | 101° |
| 2026-05-04 05:58 | 56.11337 | 66.03579 | 38974 ft | 466 kts | 101° |
| 2026-05-04 05:59 | 56.10484 | 66.15050 | 38974 ft | 467 kts | 101° |
| 2026-05-04 05:59 | 56.09616 | 66.26574 | 38976 ft | 466 kts | 101° |
| 2026-05-04 06:00 | 56.08741 | 66.38032 | 38974 ft | 466 kts | 101° |
| 2026-05-04 06:00 | 56.07853 | 66.49524 | 38975 ft | 466 kts | 101° |
| 2026-05-04 06:01 | 56.06953 | 66.61019 | 38975 ft | 466 kts | 101° |
| 2026-05-04 06:03 | 56.03266 | 67.06721 | 38975 ft | 465 kts | 102° |
| 2026-05-04 06:05 | 56.02462 | 67.47039 | 39049 ft | 469 kts | 85° |
| 2026-05-04 06:05 | 56.03276 | 67.58613 | 39098 ft | 469 kts | 85° |
| 2026-05-04 06:06 | 56.04048 | 67.70183 | 39121 ft | 469 kts | 86° |
| 2026-05-04 06:06 | 56.04799 | 67.81720 | 39132 ft | 469 kts | 86° |
| 2026-05-04 06:07 | 56.05540 | 67.93276 | 39136 ft | 469 kts | 86° |
| 2026-05-04 06:07 | 56.06276 | 68.04903 | 39138 ft | 468 kts | 86° |
| 2026-05-04 06:08 | 56.06994 | 68.16446 | 39139 ft | 468 kts | 86° |
| 2026-05-04 06:08 | 56.07702 | 68.27969 | 39139 ft | 468 kts | 86° |
| 2026-05-04 06:09 | 56.08401 | 68.39556 | 39139 ft | 468 kts | 86° |
| 2026-05-04 06:11 | 56.11081 | 68.85783 | 39139 ft | 468 kts | 87° |
| 2026-05-04 06:13 | 56.13580 | 69.31944 | 39138 ft | 466 kts | 86° |
| 2026-05-04 06:14 | 56.14246 | 69.66585 | 39138 ft | 463 kts | 97° |
| 2026-05-04 06:14 | 56.13996 | 69.72322 | 39139 ft | 461 kts | 99° |
| 2026-05-04 06:15 | 56.13366 | 69.83677 | 39138 ft | 461 kts | 99° |
| 2026-05-04 06:15 | 56.12716 | 69.95074 | 39138 ft | 461 kts | 99° |
| 2026-05-04 06:16 | 56.12062 | 70.06535 | 39139 ft | 461 kts | 99° |
| 2026-05-04 06:16 | 56.11406 | 70.17888 | 39138 ft | 461 kts | 99° |
| 2026-05-04 06:17 | 56.10736 | 70.29333 | 39139 ft | 461 kts | 99° |
| 2026-05-04 06:17 | 56.10060 | 70.40691 | 39139 ft | 461 kts | 99° |
| 2026-05-04 06:18 | 56.09373 | 70.52062 | 39139 ft | 460 kts | 99° |
| 2026-05-04 06:20 | 56.06517 | 70.97546 | 39139 ft | 459 kts | 100° |
| 2026-05-04 06:21 | 56.04659 | 71.25748 | 39147 ft | 459 kts | 100° |
| 2026-05-04 06:22 | 56.03894 | 71.37090 | 39157 ft | 458 kts | 100° |
| 2026-05-04 06:25 | 55.98281 | 72.15860 | 39165 ft | 458 kts | 101° |
| 2026-05-04 06:26 | 55.97440 | 72.27082 | 39165 ft | 457 kts | 101° |
| 2026-05-04 06:26 | 55.96587 | 72.38309 | 39165 ft | 457 kts | 101° |
| 2026-05-04 06:27 | 55.94412 | 72.66348 | 39165 ft | 457 kts | 102° |
| 2026-05-04 06:28 | 55.93532 | 72.77519 | 39164 ft | 457 kts | 102° |
| 2026-05-04 06:28 | 55.92636 | 72.88774 | 39165 ft | 457 kts | 102° |
| 2026-05-04 06:29 | 55.91736 | 72.99948 | 39164 ft | 457 kts | 102° |
| 2026-05-04 06:29 | 55.90825 | 73.11128 | 39164 ft | 458 kts | 102° |
| 2026-05-04 06:30 | 55.89899 | 73.22308 | 39165 ft | 460 kts | 102° |
| 2026-05-04 06:30 | 55.88941 | 73.33627 | 39164 ft | 460 kts | 103° |
| 2026-05-04 06:31 | 55.87961 | 73.44891 | 39164 ft | 460 kts | 102° |
| 2026-05-04 06:31 | 55.86976 | 73.56126 | 39163 ft | 460 kts | 102° |
| 2026-05-04 06:33 | 55.82948 | 74.00913 | 39165 ft | 459 kts | 103° |
| 2026-05-04 06:34 | 55.81914 | 74.12107 | 39164 ft | 459 kts | 103° |
| 2026-05-04 06:34 | 55.80875 | 74.23249 | 39165 ft | 460 kts | 103° |
| 2026-05-04 06:36 | 55.76610 | 74.67840 | 39164 ft | 459 kts | 104° |
| 2026-05-04 06:37 | 55.75515 | 74.79000 | 39165 ft | 459 kts | 104° |
| 2026-05-04 06:37 | 55.74414 | 74.90130 | 39165 ft | 458 kts | 104° |
| 2026-05-04 06:38 | 55.73309 | 75.01198 | 39164 ft | 459 kts | 104° |